createdAt,value
2022-09-15T00:00:01.182Z,99830.66
2022-09-15T00:02:28.193Z,99833.44
2022-09-15T00:04:55.094Z,99831.38
2022-09-15T00:07:22.145Z,99834.19
2022-09-15T00:09:48.618Z,99829.38
2022-09-15T00:12:15.305Z,99832.59
2022-09-15T00:14:42.013Z,99833.00
2022-09-15T00:17:08.897Z,99830.22
2022-09-15T00:19:35.718Z,99829.78
2022-09-15T00:22:02.306Z,99826.22
2022-09-15T00:24:29.092Z,99832.19
2022-09-15T00:26:56.761Z,99822.16
2022-09-15T00:29:23.669Z,99826.16
2022-09-15T00:31:50.551Z,99823.00
2022-09-15T00:34:17.515Z,99824.19
2022-09-15T00:36:44.508Z,99832.19
2022-09-15T00:39:12.031Z,99835.38
2022-09-15T00:41:40.425Z,99840.16
2022-09-15T00:44:16.043Z,99841.75
2022-09-15T00:46:54.823Z,99832.13
2022-09-15T00:49:39.070Z,99834.91
2022-09-15T00:52:25.230Z,99834.91
2022-09-15T00:55:09.204Z,99828.91
2022-09-15T00:57:39.282Z,99826.09
2022-09-15T01:00:10.506Z,99827.28
2022-09-15T01:02:38.902Z,99828.50
2022-09-15T01:05:09.188Z,99828.53
2022-09-15T01:07:41.863Z,99830.13
2022-09-15T01:10:16.158Z,99841.31
2022-09-15T01:12:43.069Z,99841.31
2022-09-15T01:15:09.963Z,99836.47
2022-09-15T01:17:54.940Z,99829.25
2022-09-15T01:20:43.235Z,99835.66
2022-09-15T01:23:10.183Z,99835.66
2022-09-15T01:25:43.281Z,99832.44
2022-09-15T01:28:34.626Z,99838.44
2022-09-15T01:31:12.182Z,99836.41
2022-09-15T01:33:57.602Z,99838.41
2022-09-15T01:37:06.268Z,99834.72
2022-09-15T01:39:39.337Z,99837.22
2022-09-15T01:42:10.254Z,99830.00
2022-09-15T01:44:52.093Z,99837.22
2022-09-15T01:47:20.992Z,99848.38
2022-09-15T01:50:12.836Z,99845.56
2022-09-15T01:52:46.995Z,99839.50
2022-09-15T01:55:22.848Z,99842.75
2022-09-15T01:57:50.595Z,99830.81
2022-09-15T02:00:17.458Z,99825.91
2022-09-15T02:03:04.250Z,99833.09
2022-09-15T02:05:40.043Z,99834.25
2022-09-15T02:08:38.234Z,99840.31
2022-09-15T02:11:16.854Z,99831.47
2022-09-15T02:14:18.523Z,99833.03
2022-09-15T02:16:49.941Z,99849.03
2022-09-15T02:19:31.349Z,99850.66
2022-09-15T02:22:24.169Z,99844.22
2022-09-15T02:24:58.108Z,99847.81
2022-09-15T02:27:28.567Z,99839.38
2022-09-15T02:30:03.125Z,99843.78
2022-09-15T02:32:31.633Z,99844.22
2022-09-15T02:35:00.581Z,99847.78
2022-09-15T02:37:27.721Z,99846.59
2022-09-15T02:40:00.401Z,99847.38
2022-09-15T02:42:29.470Z,99851.78
2022-09-15T02:44:57.039Z,99856.19
2022-09-15T02:47:24.782Z,99856.94
2022-09-15T02:49:51.696Z,99864.94
2022-09-15T02:52:18.249Z,99848.13
2022-09-15T02:54:44.811Z,99853.78
2022-09-15T02:57:11.754Z,99859.34
2022-09-15T02:59:57.129Z,99862.56
2022-09-15T03:02:24.907Z,99855.34
2022-09-15T03:04:51.702Z,99856.13
2022-09-15T03:07:18.826Z,99861.72
2022-09-15T03:09:46.124Z,99858.50
2022-09-15T03:12:13.308Z,99864.91
2022-09-15T03:14:40.221Z,99865.34
2022-09-15T03:17:06.818Z,99859.34
2022-09-15T03:19:33.439Z,99862.13
2022-09-15T03:22:00.054Z,99860.09
2022-09-15T03:24:26.796Z,99864.88
2022-09-15T03:26:53.516Z,99858.50
2022-09-15T03:29:20.174Z,99860.50
2022-09-15T03:31:47.176Z,99863.66
2022-09-15T03:34:13.846Z,99860.47
2022-09-15T03:36:41.224Z,99867.34
2022-09-15T03:39:08.088Z,99859.75
2022-09-15T03:41:34.855Z,99865.72
2022-09-15T03:44:01.639Z,99860.09
2022-09-15T03:46:29.498Z,99856.47
2022-09-15T03:48:57.002Z,99854.44
2022-09-15T03:51:24.127Z,99855.25
2022-09-15T03:53:50.875Z,99852.41
2022-09-15T03:56:23.565Z,99855.25
2022-09-15T03:58:51.161Z,99850.44
2022-09-15T04:01:21.326Z,99836.00
2022-09-15T04:03:51.155Z,99846.34
2022-09-15T04:06:20.940Z,99842.75
2022-09-15T04:08:48.762Z,99830.34
2022-09-15T04:11:17.029Z,99837.16
2022-09-15T04:13:44.160Z,99833.56
2022-09-15T04:16:16.683Z,99835.94
2022-09-15T04:18:43.966Z,99846.34
2022-09-15T04:21:13.553Z,99840.75
2022-09-15T04:23:41.239Z,99840.72
2022-09-15T04:26:14.173Z,99840.72
2022-09-15T04:28:40.908Z,99843.56
2022-09-15T04:31:09.944Z,99850.38
2022-09-15T04:33:37.336Z,99853.13
2022-09-15T04:36:12.309Z,99849.50
2022-09-15T04:38:39.139Z,99850.31
2022-09-15T04:41:06.371Z,99861.50
2022-09-15T04:43:33.749Z,99857.09
2022-09-15T04:46:00.887Z,99854.69
2022-09-15T04:48:27.760Z,99865.47
2022-09-15T04:50:54.786Z,99864.72
2022-09-15T04:53:21.671Z,99857.50
2022-09-15T04:55:48.300Z,99863.84
2022-09-15T04:58:14.942Z,99861.06
2022-09-15T05:00:45.823Z,99858.25
2022-09-15T05:03:14.325Z,99851.47
2022-09-15T05:05:41.664Z,99860.28
2022-09-15T05:08:08.348Z,99876.22
2022-09-15T05:10:35.119Z,99878.22
2022-09-15T05:13:01.697Z,99877.44
2022-09-15T05:15:28.339Z,99874.19
2022-09-15T05:17:55.026Z,99887.03
2022-09-15T05:20:21.664Z,99886.25
2022-09-15T05:22:48.239Z,99890.22
2022-09-15T05:25:15.664Z,99895.44
2022-09-15T05:27:43.014Z,99891.41
2022-09-15T05:30:35.801Z,99893.38
2022-09-15T05:32:57.745Z,99894.16
2022-09-15T05:35:24.759Z,99886.16
2022-09-15T05:37:51.293Z,99897.38
2022-09-15T05:40:20.887Z,99897.75
2022-09-15T05:42:47.706Z,99892.53
2022-09-15T05:45:14.606Z,99894.53
2022-09-15T05:47:41.204Z,99899.00
2022-09-15T05:50:08.081Z,99898.94
2022-09-15T05:52:35.919Z,99901.38
2022-09-15T05:55:02.691Z,99900.50
2022-09-15T05:57:29.366Z,99898.91
2022-09-15T05:59:56.052Z,99902.88
2022-09-15T06:02:22.878Z,99897.28
2022-09-15T06:04:49.726Z,99900.50
2022-09-15T06:07:16.833Z,99905.69
2022-09-15T06:09:44.008Z,99907.72
2022-09-15T06:12:10.644Z,99906.09
2022-09-15T06:14:37.388Z,99914.09
2022-09-15T06:17:04.050Z,99913.34
2022-09-15T06:19:30.588Z,99914.50
2022-09-15T06:21:57.163Z,99920.13
2022-09-15T06:24:24.357Z,99918.06
2022-09-15T06:26:51.100Z,99914.78
2022-09-15T06:29:17.801Z,99922.84
2022-09-15T06:31:44.441Z,99918.00
2022-09-15T06:34:11.947Z,99920.44
2022-09-15T06:36:39.098Z,99926.81
2022-09-15T06:39:06.012Z,99932.81
2022-09-15T06:41:58.481Z,99933.22
2022-09-15T06:44:20.288Z,99934.47
2022-09-15T06:46:47.519Z,99942.84
2022-09-15T06:49:14.182Z,99949.22
2022-09-15T06:51:41.084Z,99940.41
2022-09-15T06:54:07.967Z,99941.63
2022-09-15T06:56:38.041Z,99943.66
2022-09-15T06:59:05.797Z,99941.34
2022-09-15T07:01:32.929Z,99938.88
2022-09-15T07:04:01.333Z,99940.41
2022-09-15T07:06:29.966Z,99952.81
2022-09-15T07:08:58.467Z,99944.44
2022-09-15T07:11:26.237Z,99946.84
2022-09-15T07:13:53.269Z,99946.41
2022-09-15T07:16:21.353Z,99948.47
2022-09-15T07:18:49.033Z,99964.38
2022-09-15T07:21:18.571Z,99962.81
2022-09-15T07:23:45.978Z,99961.16
2022-09-15T07:26:19.934Z,99967.59
2022-09-15T07:28:53.120Z,99972.03
2022-09-15T07:31:22.114Z,99972.38
2022-09-15T07:33:49.191Z,99975.59
2022-09-15T07:36:16.255Z,99983.63
2022-09-15T07:38:45.246Z,99982.81
2022-09-15T07:41:14.665Z,99982.06
2022-09-15T07:43:46.314Z,99989.28
2022-09-15T07:46:13.056Z,99990.09
2022-09-15T07:48:39.650Z,99990.81
2022-09-15T07:51:06.525Z,99986.03
2022-09-15T07:53:33.173Z,99988.41
2022-09-15T07:55:59.788Z,99997.25
2022-09-15T07:58:26.852Z,100003.66
2022-09-15T08:00:53.656Z,99999.75
2022-09-15T08:03:20.681Z,99997.69
2022-09-15T08:05:47.530Z,100006.53
2022-09-15T08:08:14.261Z,100007.69
2022-09-15T08:10:41.471Z,100003.72
2022-09-15T08:13:08.819Z,100002.16
2022-09-15T08:15:37.458Z,100008.19
2022-09-15T08:18:05.274Z,100012.13
2022-09-15T08:20:32.602Z,100015.88
2022-09-15T08:22:59.277Z,100018.97
2022-09-15T08:25:26.188Z,100018.16
2022-09-15T08:27:54.274Z,100026.66
2022-09-15T08:30:21.971Z,100019.78
2022-09-15T08:32:49.471Z,100018.91
2022-09-15T08:35:17.245Z,100023.00
2022-09-15T08:37:43.807Z,100035.00
2022-09-15T08:40:18.038Z,100028.66
2022-09-15T08:42:48.628Z,100033.88
2022-09-15T08:45:25.517Z,100039.09
2022-09-15T08:48:00.158Z,100036.56
2022-09-15T08:50:35.924Z,100039.81
2022-09-15T08:53:09.798Z,100054.13
2022-09-15T08:55:56.169Z,100047.66
2022-09-15T08:58:31.265Z,100048.88
2022-09-15T09:01:22.476Z,100058.84
2022-09-15T09:03:55.252Z,100054.88
2022-09-15T09:06:27.962Z,100057.28
2022-09-15T09:09:19.589Z,100057.28
2022-09-15T09:11:48.945Z,100055.75
2022-09-15T09:14:35.977Z,100058.84
2022-09-15T09:17:34.215Z,100046.81
2022-09-15T09:20:16.331Z,100058.00
2022-09-15T09:22:46.879Z,100061.38
2022-09-15T09:25:27.120Z,100064.59
2022-09-15T09:27:58.073Z,100066.16
2022-09-15T09:30:27.703Z,100063.72
2022-09-15T09:33:31.139Z,100066.44
2022-09-15T09:36:00.064Z,100064.91
2022-09-15T09:38:31.897Z,100060.50
2022-09-15T09:41:02.281Z,100061.25
2022-09-15T09:43:30.169Z,100052.97
2022-09-15T09:45:57.133Z,100062.97
2022-09-15T09:48:26.262Z,100058.09
2022-09-15T09:50:52.719Z,100056.63
2022-09-15T09:53:31.263Z,100057.03
2022-09-15T09:56:18.079Z,100052.50
2022-09-15T09:58:45.388Z,100056.63
2022-09-15T10:01:17.857Z,100048.97
2022-09-15T10:03:48.259Z,100046.91
2022-09-15T10:06:22.617Z,100046.91
2022-09-15T10:08:58.593Z,100054.22
2022-09-15T10:11:43.273Z,100058.19
2022-09-15T10:14:20.173Z,100052.56
2022-09-15T10:17:40.836Z,100057.34
2022-09-15T10:20:21.240Z,100052.63
2022-09-15T10:22:48.546Z,100055.44
2022-09-15T10:25:20.994Z,100047.09
2022-09-15T10:28:09.726Z,100047.38
2022-09-15T10:30:37.454Z,100046.59
2022-09-15T10:33:22.989Z,100043.41
2022-09-15T10:35:50.614Z,100044.59
2022-09-15T10:38:26.417Z,100044.22
2022-09-15T10:41:01.078Z,100040.19
2022-09-15T10:43:33.751Z,100039.75
2022-09-15T10:46:05.856Z,100042.25
2022-09-15T10:48:46.723Z,100039.88
2022-09-15T10:51:28.139Z,100029.34
2022-09-15T10:54:25.859Z,100029.41
2022-09-15T10:57:01.346Z,100038.19
2022-09-15T10:59:43.681Z,100035.00
2022-09-15T11:02:28.949Z,100044.66
2022-09-15T11:05:22.767Z,100035.16
2022-09-15T11:08:01.754Z,100043.16
2022-09-15T11:10:35.435Z,100033.09
2022-09-15T11:13:36.497Z,100042.28
2022-09-15T11:16:41.474Z,100039.94
2022-09-15T11:19:26.913Z,100040.69
2022-09-15T11:21:59.815Z,100050.38
2022-09-15T11:24:30.410Z,100044.78
2022-09-15T11:27:15.373Z,100044.03
2022-09-15T11:29:42.442Z,100038.31
2022-09-15T11:32:19.541Z,100046.81
2022-09-15T11:34:53.703Z,100051.13
2022-09-15T11:37:40.283Z,100045.47
2022-09-15T11:40:30.323Z,100052.31
2022-09-15T11:43:09.171Z,100050.69
2022-09-15T11:45:42.334Z,100049.16
2022-09-15T11:48:23.499Z,100051.97
2022-09-15T11:50:54.788Z,100043.56
2022-09-15T11:53:53.359Z,100045.56
2022-09-15T11:56:33.809Z,100048.81
2022-09-15T11:59:22.229Z,100040.00
2022-09-15T12:02:20.172Z,100055.59
2022-09-15T12:04:57.887Z,100055.22
2022-09-15T12:07:29.069Z,100062.44
2022-09-15T12:10:04.235Z,100056.00
2022-09-15T12:12:32.725Z,100054.47
2022-09-15T12:14:59.507Z,100059.97
2022-09-15T12:17:41.697Z,100060.78
2022-09-15T12:20:17.769Z,100064.00
2022-09-15T12:22:57.126Z,100069.66
2022-09-15T12:25:41.129Z,100055.66
2022-09-15T12:28:22.958Z,100056.06
2022-09-15T12:31:15.437Z,100058.41
2022-09-15T12:33:53.493Z,100064.75
2022-09-15T12:36:43.198Z,100060.38
2022-09-15T12:39:18.867Z,100068.91
2022-09-15T12:42:22.641Z,100071.31
2022-09-15T12:45:04.465Z,100074.84
2022-09-15T12:47:54.730Z,100071.28
2022-09-15T12:50:38.137Z,100069.75
2022-09-15T12:53:20.215Z,100073.75
2022-09-15T12:56:00.959Z,100078.44
2022-09-15T12:58:40.166Z,100074.13
2022-09-15T13:01:18.951Z,100071.38
2022-09-15T13:03:45.828Z,100072.94
2022-09-15T13:06:25.866Z,100070.41
2022-09-15T13:09:05.653Z,100068.78
2022-09-15T13:11:37.410Z,100062.00
2022-09-15T13:14:06.591Z,100068.41
2022-09-15T13:16:46.706Z,100074.84
2022-09-15T13:19:41.228Z,100071.59
2022-09-15T13:22:20.404Z,100068.91
2022-09-15T13:24:47.104Z,100078.47
2022-09-15T13:27:17.460Z,100085.66
2022-09-15T13:30:00.100Z,100079.25
2022-09-15T13:32:32.569Z,100083.72
2022-09-15T13:35:20.907Z,100101.22
2022-09-15T13:38:15.270Z,100103.13
2022-09-15T13:41:08.602Z,100099.50
2022-09-15T13:43:50.561Z,100096.63
2022-09-15T13:46:45.081Z,100100.75
2022-09-15T13:49:32.805Z,100104.34
2022-09-15T13:52:13.761Z,100106.72
2022-09-15T13:55:12.071Z,100100.25
2022-09-15T14:00:34.964Z,100099.06
2022-09-15T14:03:17.394Z,100096.69
2022-09-15T14:05:45.668Z,100102.31
2022-09-15T14:08:19.744Z,100096.25
2022-09-15T14:10:59.468Z,100097.56
2022-09-15T14:13:28.772Z,100094.31
2022-09-15T14:16:03.017Z,100093.16
2022-09-15T14:18:31.474Z,100095.06
2022-09-15T14:21:04.346Z,100097.88
2022-09-15T14:23:32.757Z,100096.69
2022-09-15T14:26:01.349Z,100097.56
2022-09-15T14:28:34.046Z,100101.56
2022-09-15T14:31:02.158Z,100101.50
2022-09-15T14:33:38.228Z,100103.13
2022-09-15T14:36:22.621Z,100101.44
2022-09-15T14:39:21.869Z,100099.88
2022-09-15T14:41:50.134Z,100100.34
2022-09-15T14:47:27.924Z,100101.97
2022-09-15T14:50:17.442Z,100090.38
2022-09-15T14:52:48.382Z,100088.78
2022-09-15T14:55:23.193Z,100095.13
2022-09-15T14:58:02.079Z,100095.56
2022-09-15T15:00:39.913Z,100097.56
2022-09-15T15:03:19.472Z,100095.25
2022-09-15T15:06:02.371Z,100099.31
2022-09-15T15:08:44.559Z,100105.88
2022-09-15T15:11:13.566Z,100099.53
2022-09-15T15:13:42.668Z,100100.28
2022-09-15T15:16:14.176Z,100098.66
2022-09-15T15:18:41.382Z,100097.91
2022-09-15T15:21:31.295Z,100101.13
2022-09-15T15:23:58.135Z,100089.91
2022-09-15T15:26:38.731Z,100102.31
2022-09-15T15:29:09.299Z,100096.25
2022-09-15T15:31:40.122Z,100107.38
2022-09-15T15:34:24.482Z,100100.16
2022-09-15T15:36:51.193Z,100094.59
2022-09-15T15:39:27.092Z,100096.94
2022-09-15T15:42:05.921Z,100097.69
2022-09-15T15:44:32.827Z,100102.41
2022-09-15T15:47:22.661Z,100098.44
2022-09-15T15:50:12.312Z,100104.03
2022-09-15T15:52:39.815Z,100108.00
2022-09-15T15:55:07.224Z,100109.22
2022-09-15T15:57:39.940Z,100112.78
2022-09-15T16:00:24.535Z,100123.97
2022-09-15T16:02:52.304Z,100116.75
2022-09-15T16:05:26.571Z,100116.25
2022-09-15T16:07:56.134Z,100116.66
2022-09-15T16:10:28.113Z,100115.84
2022-09-15T16:12:54.782Z,100114.25
2022-09-15T16:15:22.092Z,100117.47
2022-09-15T16:17:49.719Z,100111.13
2022-09-15T16:20:17.056Z,100105.09
2022-09-15T16:22:44.044Z,100117.91
2022-09-15T16:25:17.429Z,100116.75
2022-09-15T16:27:44.312Z,100107.16
2022-09-15T16:30:13.893Z,100106.34
2022-09-15T16:32:41.283Z,100118.38
2022-09-15T16:35:35.097Z,100114.75
2022-09-15T16:38:02.235Z,100111.13
2022-09-15T16:40:29.353Z,100119.34
2022-09-15T16:42:56.338Z,100116.97
2022-09-15T16:45:39.737Z,100123.00
2022-09-15T16:48:07.899Z,100126.00
2022-09-15T16:50:35.145Z,100121.69
2022-09-15T16:53:02.202Z,100130.97
2022-09-15T16:55:33.503Z,100127.03
2022-09-15T16:58:00.263Z,100127.25
2022-09-15T17:00:31.927Z,100136.25
2022-09-15T17:02:58.807Z,100132.63
2022-09-15T17:05:37.729Z,100137.75
2022-09-15T17:08:05.720Z,100129.84
2022-09-15T17:10:33.495Z,100136.66
2022-09-15T17:13:00.977Z,100136.75
2022-09-15T17:15:29.993Z,100144.06
2022-09-15T17:17:57.572Z,100144.81
2022-09-15T17:20:25.688Z,100139.63
2022-09-15T17:22:53.524Z,100146.72
2022-09-15T17:25:31.149Z,100147.06
2022-09-15T17:27:58.876Z,100155.03
2022-09-15T17:30:28.363Z,100153.00
2022-09-15T17:33:11.865Z,100152.22
2022-09-15T17:35:38.760Z,100153.41
2022-09-15T17:38:06.549Z,100151.03
2022-09-15T17:40:34.739Z,100152.59
2022-09-15T17:43:01.804Z,100153.00
2022-09-15T17:45:32.045Z,100160.59
2022-09-15T17:47:59.574Z,100157.38
2022-09-15T17:50:28.697Z,100160.53
2022-09-15T17:52:55.642Z,100161.69
2022-09-15T17:55:30.973Z,100158.13
2022-09-15T17:57:59.930Z,100163.72
2022-09-15T18:00:30.186Z,100162.91
2022-09-15T18:03:00.628Z,100164.50
2022-09-15T18:05:32.978Z,100163.88
2022-09-15T18:08:03.230Z,100166.25
2022-09-15T18:10:32.708Z,100168.59
2022-09-15T18:13:00.118Z,100168.50
2022-09-15T18:15:29.865Z,100170.97
2022-09-15T18:17:59.465Z,100178.22
2022-09-15T18:20:28.973Z,100175.72
2022-09-15T18:22:56.869Z,100177.00
2022-09-15T18:25:32.462Z,100181.06
2022-09-15T18:28:00.857Z,100182.94
2022-09-15T18:30:31.034Z,100180.69
2022-09-15T18:32:58.782Z,100184.66
2022-09-15T18:35:26.458Z,100199.75
2022-09-15T18:37:58.532Z,100193.28
2022-09-15T18:40:26.643Z,100192.53
2022-09-15T18:42:54.298Z,100192.91
2022-09-15T18:45:20.928Z,100190.44
2022-09-15T18:47:49.187Z,100200.50
2022-09-15T18:50:17.942Z,100201.41
2022-09-15T18:52:45.057Z,100201.41
2022-09-15T18:55:15.276Z,100201.00
2022-09-15T18:57:42.550Z,100208.59
2022-09-15T19:00:19.488Z,100207.28
2022-09-15T19:02:47.241Z,100204.38
2022-09-15T19:05:15.678Z,100202.00
2022-09-15T19:07:43.969Z,100199.66
2022-09-15T19:10:12.506Z,100202.97
2022-09-15T19:12:39.514Z,100204.06
2022-09-15T19:15:10.858Z,100200.66
2022-09-15T19:17:39.244Z,100210.16
2022-09-15T19:20:08.377Z,100203.75
2022-09-15T19:22:35.861Z,100207.69
2022-09-15T19:25:04.415Z,100210.38
2022-09-15T19:27:31.474Z,100204.41
2022-09-15T19:29:58.277Z,100215.22
2022-09-15T19:32:25.008Z,100207.69
2022-09-15T19:34:51.900Z,100217.28
2022-09-15T19:37:20.906Z,100210.09
2022-09-15T19:39:48.330Z,100213.38
2022-09-15T19:44:48.003Z,100214.66
2022-09-15T19:47:15.370Z,100217.53
2022-09-15T19:49:41.989Z,100221.50
2022-09-15T19:52:08.610Z,100222.38
2022-09-15T19:54:36.033Z,100221.69
2022-09-15T19:57:02.914Z,100225.31
2022-09-15T19:59:31.580Z,100232.16
2022-09-15T20:01:59.389Z,100226.47
2022-09-15T20:04:26.830Z,100228.13
2022-09-15T20:06:53.457Z,100229.41
2022-09-15T20:09:20.378Z,100225.72
2022-09-15T20:11:47.142Z,100230.25
2022-09-15T20:14:13.994Z,100230.00
2022-09-15T20:16:41.179Z,100231.09
2022-09-15T20:19:08.086Z,100230.25
2022-09-15T20:21:49.816Z,100226.34
2022-09-15T20:24:17.343Z,100232.31
2022-09-15T20:26:43.935Z,100238.00
2022-09-15T20:29:10.800Z,100233.81
2022-09-15T20:31:37.597Z,100235.38
2022-09-15T20:34:04.383Z,100242.56
2022-09-15T20:36:33.459Z,100252.91
2022-09-15T20:39:03.396Z,100247.34
2022-09-15T20:41:34.092Z,100247.97
2022-09-15T20:44:01.231Z,100246.34
2022-09-15T20:46:29.439Z,100254.41
2022-09-15T20:48:56.064Z,100257.13
2022-09-15T20:51:25.573Z,100255.91
2022-09-15T20:53:54.829Z,100258.38
2022-09-15T20:56:25.335Z,100249.59
2022-09-15T20:58:58.532Z,100255.50
2022-09-15T21:01:27.910Z,100263.06
2022-09-15T21:03:55.496Z,100258.31
2022-09-15T21:06:25.646Z,100256.72
2022-09-15T21:08:53.481Z,100255.81
2022-09-15T21:11:21.334Z,100257.44
2022-09-15T21:13:49.375Z,100264.66
2022-09-15T21:16:20.485Z,100256.97
2022-09-15T21:18:48.291Z,100265.31
2022-09-15T21:21:20.307Z,100260.63
2022-09-15T21:23:54.791Z,100264.41
2022-09-15T21:26:23.855Z,100261.50
2022-09-15T21:28:50.875Z,100259.88
2022-09-15T21:31:20.183Z,100261.94
2022-09-15T21:33:47.692Z,100255.66
2022-09-15T21:36:22.287Z,100258.38
2022-09-15T21:38:51.397Z,100261.81
2022-09-15T21:41:20.851Z,100257.38
2022-09-15T21:43:48.823Z,100257.06
2022-09-15T21:46:19.994Z,100254.28
2022-09-15T21:48:48.670Z,100269.03
2022-09-15T21:51:24.298Z,100273.03
2022-09-15T21:53:53.108Z,100273.78
2022-09-15T21:56:21.108Z,100282.69
2022-09-15T21:58:48.398Z,100276.13
2022-09-15T22:01:19.632Z,100271.41
2022-09-15T22:04:03.915Z,100270.97
2022-09-15T22:06:33.502Z,100264.09
2022-09-15T22:09:05.957Z,100267.72
2022-09-15T22:11:32.976Z,100270.44
2022-09-15T22:14:01.857Z,100270.50
2022-09-15T22:16:29.063Z,100270.41
2022-09-15T22:18:56.444Z,100270.31
2022-09-15T22:21:25.764Z,100272.88
2022-09-15T22:23:55.472Z,100272.00
2022-09-15T22:26:28.274Z,100271.56
2022-09-15T22:28:55.888Z,100270.41
2022-09-15T22:31:24.426Z,100271.94
2022-09-15T22:33:51.668Z,100269.88
2022-09-15T22:36:28.827Z,100275.09
2022-09-15T22:38:57.096Z,100278.66
2022-09-15T22:41:27.306Z,100277.03
2022-09-15T22:43:54.002Z,100286.22
2022-09-15T22:46:20.977Z,100279.84
2022-09-15T22:48:48.051Z,100269.38
2022-09-15T22:51:16.256Z,100272.63
2022-09-15T22:53:43.046Z,100270.63
2022-09-15T22:56:14.536Z,100267.75
2022-09-15T22:58:46.767Z,100271.81
2022-09-15T23:01:19.250Z,100268.50
2022-09-15T23:03:54.147Z,100266.69
2022-09-15T23:06:21.357Z,100270.25
2022-09-15T23:08:59.682Z,100263.78
2022-09-15T23:11:28.326Z,100266.94
2022-09-15T23:13:56.433Z,100265.69
2022-09-15T23:16:24.383Z,100262.88
2022-09-15T23:18:52.120Z,100268.88
2022-09-15T23:21:19.621Z,100268.50
2022-09-15T23:23:48.962Z,100264.06
2022-09-15T23:26:18.911Z,100268.50
2022-09-15T23:28:45.666Z,100256.88
2022-09-15T23:31:13.144Z,100253.25
2022-09-15T23:33:40.171Z,100266.88
2022-09-15T23:36:10.734Z,100255.22
2022-09-15T23:38:42.179Z,100252.44
2022-09-15T23:41:09.854Z,100248.47
2022-09-15T23:43:36.621Z,100251.53
2022-09-15T23:46:04.310Z,100252.34
2022-09-15T23:48:34.455Z,100249.63
2022-09-15T23:51:01.421Z,100249.63
2022-09-15T23:53:28.442Z,100240.34
2022-09-15T23:55:55.224Z,100251.53
2022-09-15T23:58:21.888Z,100239.59
